sensor_id;sensor_type;location;lat;lon;timestamp;pressure;altitude;pressure_sealevel;temperature;humidity
13719;BME280;6931;51.100;17.068;2022-07-26T00:01:24;99178.69;;;24.79;44.26
13719;BME280;6931;51.100;17.068;2022-07-26T00:03:57;99181.25;;;24.88;44.26
13719;BME280;6931;51.100;17.068;2022-07-26T00:06:24;99191.09;;;24.92;44.01
13719;BME280;6931;51.100;17.068;2022-07-26T00:08:51;99199.63;;;24.87;44.47
13719;BME280;6931;51.100;17.068;2022-07-26T00:11:18;99199.13;;;24.72;44.70
13719;BME280;6931;51.100;17.068;2022-07-26T00:13:45;99184.84;;;24.55;45.27
13719;BME280;6931;51.100;17.068;2022-07-26T00:16:12;99189.78;;;24.60;45.29
13719;BME280;6931;51.100;17.068;2022-07-26T00:18:39;99193.13;;;24.59;45.43
13719;BME280;6931;51.100;17.068;2022-07-26T00:21:06;99179.72;;;24.48;45.86
13719;BME280;6931;51.100;17.068;2022-07-26T00:23:33;99178.16;;;24.64;45.21
13719;BME280;6931;51.100;17.068;2022-07-26T00:26:00;99174.53;;;24.74;44.92
13719;BME280;6931;51.100;17.068;2022-07-26T00:28:27;99166.50;;;24.56;46.32
13719;BME280;6931;51.100;17.068;2022-07-26T00:30:53;99162.88;;;24.72;45.50
13719;BME280;6931;51.100;17.068;2022-07-26T00:33:20;99153.31;;;24.70;45.53
13719;BME280;6931;51.100;17.068;2022-07-26T00:35:47;99151.72;;;24.58;46.12
13719;BME280;6931;51.100;17.068;2022-07-26T00:38:13;99149.41;;;24.45;46.70
13719;BME280;6931;51.100;17.068;2022-07-26T00:40:40;99147.09;;;24.60;46.14
13719;BME280;6931;51.100;17.068;2022-07-26T00:43:07;99143.44;;;24.49;46.78
13719;BME280;6931;51.100;17.068;2022-07-26T00:45:33;99137.22;;;24.50;46.67
13719;BME280;6931;51.100;17.068;2022-07-26T00:48:00;99141.13;;;24.47;46.62
13719;BME280;6931;51.100;17.068;2022-07-26T00:50:27;99141.13;;;24.64;46.55
13719;BME280;6931;51.100;17.068;2022-07-26T00:52:54;99146.53;;;24.40;47.51
13719;BME280;6931;51.100;17.068;2022-07-26T00:55:20;99151.75;;;24.30;47.92
13719;BME280;6931;51.100;17.068;2022-07-26T00:57:47;99141.66;;;24.46;47.55
13719;BME280;6931;51.100;17.068;2022-07-26T01:00:19;99145.25;;;24.35;47.49
13719;BME280;6931;51.100;17.068;2022-07-26T01:02:46;99154.06;;;24.21;47.58
13719;BME280;6931;51.100;17.068;2022-07-26T01:05:13;99140.88;;;24.29;47.36
13719;BME280;6931;51.100;17.068;2022-07-26T01:07:40;99154.06;;;24.21;47.65
13719;BME280;6931;51.100;17.068;2022-07-26T01:10:09;99154.84;;;24.43;47.30
13719;BME280;6931;51.100;17.068;2022-07-26T01:12:42;99145.53;;;24.32;48.18
13719;BME280;6931;51.100;17.068;2022-07-26T01:15:10;99154.06;;;24.43;48.48
13719;BME280;6931;51.100;17.068;2022-07-26T01:17:37;99149.16;;;24.27;48.31
13719;BME280;6931;51.100;17.068;2022-07-26T01:20:06;99143.72;;;24.29;48.49
13719;BME280;6931;51.100;17.068;2022-07-26T01:22:33;99148.38;;;24.10;48.95
13719;BME280;6931;51.100;17.068;2022-07-26T01:25:01;99157.41;;;24.25;48.68
13719;BME280;6931;51.100;17.068;2022-07-26T01:27:28;99157.16;;;24.23;48.94
13719;BME280;6931;51.100;17.068;2022-07-26T01:29:59;99158.47;;;24.27;49.52
13719;BME280;6931;51.100;17.068;2022-07-26T01:32:26;99152.25;;;24.29;50.10
13719;BME280;6931;51.100;17.068;2022-07-26T01:34:52;99161.63;;;23.54;51.92
13719;BME280;6931;51.100;17.068;2022-07-26T01:37:19;99135.53;;;23.44;51.83
13719;BME280;6931;51.100;17.068;2022-07-26T01:39:45;99159.16;;;23.89;50.84
13719;BME280;6931;51.100;17.068;2022-07-26T01:42:12;99153.78;;;24.02;50.54
13719;BME280;6931;51.100;17.068;2022-07-26T01:44:39;99156.38;;;24.11;50.26
13719;BME280;6931;51.100;17.068;2022-07-26T01:47:06;99173.69;;;24.02;50.83
13719;BME280;6931;51.100;17.068;2022-07-26T01:49:32;99169.56;;;24.03;50.71
13719;BME280;6931;51.100;17.068;2022-07-26T01:51:59;99122.16;;;23.78;50.92
13719;BME280;6931;51.100;17.068;2022-07-26T01:54:26;99154.50;;;23.86;50.54
13719;BME280;6931;51.100;17.068;2022-07-26T01:56:53;99156.63;;;24.02;50.11
13719;BME280;6931;51.100;17.068;2022-07-26T01:59:19;99167.44;;;23.93;50.85
13719;BME280;6931;51.100;17.068;2022-07-26T02:01:46;99161.75;;;23.87;51.99
13719;BME280;6931;51.100;17.068;2022-07-26T02:04:13;99161.50;;;23.96;50.50
13719;BME280;6931;51.100;17.068;2022-07-26T02:06:59;99161.34;;;23.46;51.50
13719;BME280;6931;51.100;17.068;2022-07-26T02:09:30;99159.22;;;23.30;51.99
13719;BME280;6931;51.100;17.068;2022-07-26T02:12:05;99168.28;;;23.34;51.66
13719;BME280;6931;51.100;17.068;2022-07-26T02:14:32;99183.41;;;23.15;54.42
13719;BME280;6931;51.100;17.068;2022-07-26T02:16:58;99195.47;;;23.04;55.23
13719;BME280;6931;51.100;17.068;2022-07-26T02:19:29;99185.91;;;23.44;53.63
13719;BME280;6931;51.100;17.068;2022-07-26T02:21:56;99195.25;;;23.55;53.74
13719;BME280;6931;51.100;17.068;2022-07-26T02:24:23;99198.06;;;23.50;54.04
13719;BME280;6931;51.100;17.068;2022-07-26T02:26:54;99209.69;;;23.52;53.58
13719;BME280;6931;51.100;17.068;2022-07-26T02:29:22;99207.09;;;23.48;53.66
13719;BME280;6931;51.100;17.068;2022-07-26T02:31:49;99212.28;;;23.44;55.48
13719;BME280;6931;51.100;17.068;2022-07-26T02:34:16;99207.44;;;23.19;55.44
13719;BME280;6931;51.100;17.068;2022-07-26T02:36:43;99223.72;;;22.82;58.56
13719;BME280;6931;51.100;17.068;2022-07-26T02:39:11;99208.06;;;22.61;64.17
13719;BME280;6931;51.100;17.068;2022-07-26T02:41:38;99202.41;;;22.35;66.95
13719;BME280;6931;51.100;17.068;2022-07-26T02:44:06;99229.94;;;22.55;67.17
13719;BME280;6931;51.100;17.068;2022-07-26T02:46:34;99253.53;;;21.75;70.58
13719;BME280;6931;51.100;17.068;2022-07-26T02:49:01;99287.34;;;21.38;73.41
13719;BME280;6931;51.100;17.068;2022-07-26T02:51:28;99311.16;;;21.46;73.49
13719;BME280;6931;51.100;17.068;2022-07-26T02:53:54;99299.34;;;20.99;75.93
13719;BME280;6931;51.100;17.068;2022-07-26T02:56:21;99286.06;;;20.76;80.00
13719;BME280;6931;51.100;17.068;2022-07-26T02:58:48;99294.84;;;21.07;80.72
13719;BME280;6931;51.100;17.068;2022-07-26T03:01:16;99286.84;;;20.76;79.98
13719;BME280;6931;51.100;17.068;2022-07-26T03:03:42;99285.97;;;20.99;79.73
13719;BME280;6931;51.100;17.068;2022-07-26T03:06:16;99300.81;;;21.09;79.51
13719;BME280;6931;51.100;17.068;2022-07-26T03:08:43;99299.91;;;21.03;79.09
13719;BME280;6931;51.100;17.068;2022-07-26T03:11:09;99307.94;;;21.04;77.31
13719;BME280;6931;51.100;17.068;2022-07-26T03:13:37;99317.69;;;21.03;78.01
13719;BME280;6931;51.100;17.068;2022-07-26T03:16:05;99317.69;;;21.03;78.01
13719;BME280;6931;51.100;17.068;2022-07-26T03:18:32;99320.13;;;21.10;78.09
13719;BME280;6931;51.100;17.068;2022-07-26T03:20:59;99333.28;;;21.28;77.75
13719;BME280;6931;51.100;17.068;2022-07-26T03:23:25;99330.28;;;21.02;78.71
13719;BME280;6931;51.100;17.068;2022-07-26T03:25:52;99330.66;;;21.10;77.70
13719;BME280;6931;51.100;17.068;2022-07-26T03:28:19;99329.88;;;20.95;79.64
13719;BME280;6931;51.100;17.068;2022-07-26T03:30:45;99334.56;;;20.98;80.65
13719;BME280;6931;51.100;17.068;2022-07-26T03:33:12;99331.16;;;20.79;81.17
13719;BME280;6931;51.100;17.068;2022-07-26T03:35:38;99338.78;;;20.73;83.02
13719;BME280;6931;51.100;17.068;2022-07-26T03:38:05;99344.72;;;20.61;84.17
13719;BME280;6931;51.100;17.068;2022-07-26T03:40:32;99314.44;;;20.52;83.13
13719;BME280;6931;51.100;17.068;2022-07-26T03:42:58;99354.41;;;20.69;84.25
13719;BME280;6931;51.100;17.068;2022-07-26T03:45:25;99360.84;;;20.69;85.46
13719;BME280;6931;51.100;17.068;2022-07-26T03:47:51;99359.88;;;20.72;85.11
13719;BME280;6931;51.100;17.068;2022-07-26T03:50:19;99377.44;;;20.91;85.84
13719;BME280;6931;51.100;17.068;2022-07-26T03:52:46;99378.91;;;20.86;84.79
13719;BME280;6931;51.100;17.068;2022-07-26T03:55:12;99381.25;;;20.88;86.02
13719;BME280;6931;51.100;17.068;2022-07-26T03:57:57;99380.66;;;20.69;87.18
13719;BME280;6931;51.100;17.068;2022-07-26T04:00:24;99377.53;;;20.82;86.66
13719;BME280;6931;51.100;17.068;2022-07-26T04:02:50;99388.16;;;20.72;88.00
13719;BME280;6931;51.100;17.068;2022-07-26T04:05:17;99395.91;;;20.86;88.10
13719;BME280;6931;51.100;17.068;2022-07-26T04:07:49;99395.91;;;20.86;88.10
13719;BME280;6931;51.100;17.068;2022-07-26T04:10:19;99386.03;;;20.96;87.88
13719;BME280;6931;51.100;17.068;2022-07-26T04:12:46;99394.22;;;20.94;86.73
13719;BME280;6931;51.100;17.068;2022-07-26T04:15:13;99401.09;;;21.02;87.84
13719;BME280;6931;51.100;17.068;2022-07-26T04:17:42;99401.25;;;20.84;87.65
13719;BME280;6931;51.100;17.068;2022-07-26T04:20:10;99405.84;;;20.96;87.34
13719;BME280;6931;51.100;17.068;2022-07-26T04:22:37;99407.53;;;21.03;87.98
13719;BME280;6931;51.100;17.068;2022-07-26T04:25:05;99415.75;;;21.15;86.80
13719;BME280;6931;51.100;17.068;2022-07-26T04:27:33;99411.47;;;21.05;88.20
13719;BME280;6931;51.100;17.068;2022-07-26T04:30:00;99415.44;;;21.13;87.31
13719;BME280;6931;51.100;17.068;2022-07-26T04:32:26;99424.34;;;21.06;87.35
13719;BME280;6931;51.100;17.068;2022-07-26T04:34:53;99436.66;;;21.03;86.76
13719;BME280;6931;51.100;17.068;2022-07-26T04:37:20;99437.03;;;21.11;87.56
13719;BME280;6931;51.100;17.068;2022-07-26T04:39:46;99435.97;;;21.08;86.58
13719;BME280;6931;51.100;17.068;2022-07-26T04:42:20;99440.34;;;21.09;87.16
13719;BME280;6931;51.100;17.068;2022-07-26T04:44:46;99437.03;;;21.11;87.38
13719;BME280;6931;51.100;17.068;2022-07-26T04:47:13;99441.25;;;21.15;87.64
13719;BME280;6931;51.100;17.068;2022-07-26T04:49:40;99440.16;;;21.13;86.51
13719;BME280;6931;51.100;17.068;2022-07-26T04:52:06;99450.78;;;21.18;85.36
13719;BME280;6931;51.100;17.068;2022-07-26T04:54:33;99450.50;;;21.30;85.34
13719;BME280;6931;51.100;17.068;2022-07-26T04:57:00;99463.63;;;21.28;86.23
13719;BME280;6931;51.100;17.068;2022-07-26T04:59:26;99466.31;;;21.37;85.72
13719;BME280;6931;51.100;17.068;2022-07-26T05:01:57;99478.16;;;21.35;86.29
13719;BME280;6931;51.100;17.068;2022-07-26T05:04:24;99480.13;;;21.29;83.58
13719;BME280;6931;51.100;17.068;2022-07-26T05:06:51;99484.41;;;21.39;84.23
13719;BME280;6931;51.100;17.068;2022-07-26T05:09:18;99479.72;;;21.36;84.03
13719;BME280;6931;51.100;17.068;2022-07-26T05:11:45;99488.78;;;21.40;81.70
13719;BME280;6931;51.100;17.068;2022-07-26T05:14:11;99495.84;;;21.45;83.43
13719;BME280;6931;51.100;17.068;2022-07-26T05:16:38;99489.97;;;21.34;80.60
13719;BME280;6931;51.100;17.068;2022-07-26T05:19:09;99497.91;;;21.44;80.78
13719;BME280;6931;51.100;17.068;2022-07-26T05:21:36;99499.19;;;21.43;81.26
13719;BME280;6931;51.100;17.068;2022-07-26T05:24:03;99499.63;;;21.42;79.09
13719;BME280;6931;51.100;17.068;2022-07-26T05:26:33;99494.88;;;21.48;78.95
13719;BME280;6931;51.100;17.068;2022-07-26T05:28:59;99505.31;;;21.56;78.62
13719;BME280;6931;51.100;17.068;2022-07-26T05:31:27;99507.56;;;21.52;77.68
13719;BME280;6931;51.100;17.068;2022-07-26T05:33:54;99512.75;;;21.54;77.37
13719;BME280;6931;51.100;17.068;2022-07-26T05:36:20;99524.47;;;21.61;77.22
13719;BME280;6931;51.100;17.068;2022-07-26T05:38:47;99523.41;;;21.59;78.17
13719;BME280;6931;51.100;17.068;2022-07-26T05:41:14;99518.63;;;21.50;76.95
13719;BME280;6931;51.100;17.068;2022-07-26T05:43:40;99516.94;;;21.58;77.91
13719;BME280;6931;51.100;17.068;2022-07-26T05:46:08;99520.66;;;21.64;77.06
13719;BME280;6931;51.100;17.068;2022-07-26T05:48:36;99532.09;;;21.55;76.74
13719;BME280;6931;51.100;17.068;2022-07-26T05:51:02;99528.47;;;21.55;76.57
13719;BME280;6931;51.100;17.068;2022-07-26T05:53:29;99532.97;;;21.61;77.42
13719;BME280;6931;51.100;17.068;2022-07-26T05:55:56;99539.91;;;21.60;78.00
13719;BME280;6931;51.100;17.068;2022-07-26T05:58:22;99542.75;;;21.60;76.58
13719;BME280;6931;51.100;17.068;2022-07-26T06:00:49;99555.94;;;21.49;77.46
13719;BME280;6931;51.100;17.068;2022-07-26T06:03:15;99549.00;;;21.35;76.14
13719;BME280;6931;51.100;17.068;2022-07-26T06:05:48;99573.44;;;21.47;77.13
13719;BME280;6931;51.100;17.068;2022-07-26T06:08:15;99571.28;;;21.42;76.74
13719;BME280;6931;51.100;17.068;2022-07-26T06:10:42;99571.16;;;21.37;76.06
13719;BME280;6931;51.100;17.068;2022-07-26T06:13:09;99581.25;;;21.52;77.13
13719;BME280;6931;51.100;17.068;2022-07-26T06:15:36;99594.84;;;21.48;75.60
13719;BME280;6931;51.100;17.068;2022-07-26T06:18:05;99587.91;;;21.49;76.38
13719;BME280;6931;51.100;17.068;2022-07-26T06:20:32;99596.22;;;21.38;75.02
13719;BME280;6931;51.100;17.068;2022-07-26T06:22:58;99592.88;;;21.40;73.97
13719;BME280;6931;51.100;17.068;2022-07-26T06:25:26;99589.63;;;21.32;72.90
13719;BME280;6931;51.100;17.068;2022-07-26T06:27:52;99599.59;;;21.28;73.05
13719;BME280;6931;51.100;17.068;2022-07-26T06:30:19;99591.56;;;21.26;73.56
13719;BME280;6931;51.100;17.068;2022-07-26T06:32:45;99604.28;;;21.31;74.14
13719;BME280;6931;51.100;17.068;2022-07-26T06:35:13;99600.84;;;21.27;74.66
13719;BME280;6931;51.100;17.068;2022-07-26T06:37:41;99589.03;;;21.28;74.85
13719;BME280;6931;51.100;17.068;2022-07-26T06:40:09;99593.44;;;21.29;73.05
13719;BME280;6931;51.100;17.068;2022-07-26T06:42:36;99606.75;;;21.38;73.84
13719;BME280;6931;51.100;17.068;2022-07-26T06:45:04;99619.25;;;21.46;72.12
13719;BME280;6931;51.100;17.068;2022-07-26T06:47:31;99624.84;;;21.55;72.38
13719;BME280;6931;51.100;17.068;2022-07-26T06:49:57;99618.59;;;21.51;73.26
13719;BME280;6931;51.100;17.068;2022-07-26T06:52:24;99621.91;;;21.49;71.61
13719;BME280;6931;51.100;17.068;2022-07-26T06:54:51;99612.22;;;21.56;72.10
13719;BME280;6931;51.100;17.068;2022-07-26T06:57:17;99621.22;;;21.54;74.54
13719;BME280;6931;51.100;17.068;2022-07-26T06:59:44;99628.97;;;21.54;72.61
13719;BME280;6931;51.100;17.068;2022-07-26T07:02:10;99635.81;;;21.62;74.04
13719;BME280;6931;51.100;17.068;2022-07-26T07:04:37;99632.59;;;21.69;73.28
13719;BME280;6931;51.100;17.068;2022-07-26T07:07:04;99638.16;;;21.63;71.85
13719;BME280;6931;51.100;17.068;2022-07-26T07:09:32;99645.19;;;21.68;72.40
13719;BME280;6931;51.100;17.068;2022-07-26T07:11:59;99643.09;;;21.78;71.75
13719;BME280;6931;51.100;17.068;2022-07-26T07:14:36;99650.31;;;21.79;71.33
13719;BME280;6931;51.100;17.068;2022-07-26T07:17:02;99653.84;;;21.88;72.84
13719;BME280;6931;51.100;17.068;2022-07-26T07:19:40;99660.75;;;21.73;71.35
13719;BME280;6931;51.100;17.068;2022-07-26T07:22:07;99664.78;;;21.81;71.25
13719;BME280;6931;51.100;17.068;2022-07-26T07:24:38;99671.75;;;21.80;70.28
13719;BME280;6931;51.100;17.068;2022-07-26T07:27:05;99679.75;;;21.81;69.58
13719;BME280;6931;51.100;17.068;2022-07-26T07:29:32;99676.53;;;21.88;70.07
13719;BME280;6931;51.100;17.068;2022-07-26T07:31:59;99682.22;;;21.88;69.28
13719;BME280;6931;51.100;17.068;2022-07-26T07:34:30;99682.41;;;21.85;68.53
13719;BME280;6931;51.100;17.068;2022-07-26T07:36:57;99679.88;;;21.87;68.16
13719;BME280;6931;51.100;17.068;2022-07-26T07:39:26;99690.16;;;21.99;69.59
13719;BME280;6931;51.100;17.068;2022-07-26T07:42:03;99682.22;;;22.03;69.50
13719;BME280;6931;51.100;17.068;2022-07-26T07:44:30;99688.78;;;22.09;67.47
13719;BME280;6931;51.100;17.068;2022-07-26T07:46:57;99686.34;;;22.16;68.96
13719;BME280;6931;51.100;17.068;2022-07-26T07:49:23;99703.13;;;21.91;67.84
13719;BME280;6931;51.100;17.068;2022-07-26T07:51:50;99698.34;;;21.97;66.68
13719;BME280;6931;51.100;17.068;2022-07-26T07:54:17;99692.88;;;22.08;67.63
13719;BME280;6931;51.100;17.068;2022-07-26T07:56:43;99687.81;;;22.26;67.92
13719;BME280;6931;51.100;17.068;2022-07-26T07:59:10;99694.94;;;22.36;66.77
13719;BME280;6931;51.100;17.068;2022-07-26T08:01:37;99697.50;;;22.20;65.74
13719;BME280;6931;51.100;17.068;2022-07-26T08:04:07;99696.50;;;22.08;65.23
13719;BME280;6931;51.100;17.068;2022-07-26T08:06:35;99692.38;;;22.24;66.62
13719;BME280;6931;51.100;17.068;2022-07-26T08:09:02;99690.13;;;22.42;67.41
13719;BME280;6931;51.100;17.068;2022-07-26T08:11:32;99689.75;;;22.35;66.19
13719;BME280;6931;51.100;17.068;2022-07-26T08:13:59;99681.34;;;22.26;65.54
13719;BME280;6931;51.100;17.068;2022-07-26T08:16:26;99690.34;;;22.10;65.05
13719;BME280;6931;51.100;17.068;2022-07-26T08:18:53;99704.91;;;22.17;64.57
13719;BME280;6931;51.100;17.068;2022-07-26T08:21:35;99693.28;;;22.30;65.63
13719;BME280;6931;51.100;17.068;2022-07-26T08:24:02;99695.13;;;22.18;64.86
13719;BME280;6931;51.100;17.068;2022-07-26T08:26:29;99705.31;;;22.25;64.56
13719;BME280;6931;51.100;17.068;2022-07-26T08:28:55;99722.75;;;22.18;64.73
13719;BME280;6931;51.100;17.068;2022-07-26T08:31:26;99708.34;;;22.07;64.19
13719;BME280;6931;51.100;17.068;2022-07-26T08:33:53;99717.81;;;22.18;64.24
13719;BME280;6931;51.100;17.068;2022-07-26T08:36:19;99715.00;;;22.33;65.29
13719;BME280;6931;51.100;17.068;2022-07-26T08:38:46;99715.59;;;22.37;65.27
13719;BME280;6931;51.100;17.068;2022-07-26T08:41:15;99705.88;;;22.29;64.67
13719;BME280;6931;51.100;17.068;2022-07-26T08:43:42;99715.00;;;22.47;64.62
13719;BME280;6931;51.100;17.068;2022-07-26T08:46:22;99717.75;;;22.42;63.89
13719;BME280;6931;51.100;17.068;2022-07-26T08:48:53;99722.31;;;22.39;63.35
13719;BME280;6931;51.100;17.068;2022-07-26T08:51:22;99727.94;;;22.63;64.67
13719;BME280;6931;51.100;17.068;2022-07-26T08:53:53;99725.50;;;22.56;64.53
13719;BME280;6931;51.100;17.068;2022-07-26T08:56:27;99730.88;;;22.54;62.25
13719;BME280;6931;51.100;17.068;2022-07-26T08:58:54;99730.84;;;22.68;63.15
13719;BME280;6931;51.100;17.068;2022-07-26T09:01:21;99735.44;;;22.51;61.97
13719;BME280;6931;51.100;17.068;2022-07-26T09:03:47;99730.69;;;22.57;62.57
13719;BME280;6931;51.100;17.068;2022-07-26T09:06:19;99731.34;;;22.67;62.61
13719;BME280;6931;51.100;17.068;2022-07-26T09:08:49;99736.50;;;22.68;62.15
13719;BME280;6931;51.100;17.068;2022-07-26T09:13:57;99737.50;;;22.65;62.66
13719;BME280;6931;51.100;17.068;2022-07-26T09:16:24;99738.59;;;22.68;62.36
13719;BME280;6931;51.100;17.068;2022-07-26T09:18:50;99746.56;;;22.84;63.51
13719;BME280;6931;51.100;17.068;2022-07-26T09:21:34;99747.28;;;22.79;61.59
13719;BME280;6931;51.100;17.068;2022-07-26T09:24:04;99751.66;;;22.95;61.97
13719;BME280;6931;51.100;17.068;2022-07-26T09:26:31;99744.22;;;22.83;59.60
13719;BME280;6931;51.100;17.068;2022-07-26T09:29:11;99751.31;;;22.73;59.85
13719;BME280;6931;51.100;17.068;2022-07-26T09:31:38;99759.13;;;22.78;59.85
13719;BME280;6931;51.100;17.068;2022-07-26T09:34:06;99732.56;;;22.81;59.95
13719;BME280;6931;51.100;17.068;2022-07-26T09:36:49;99746.66;;;22.90;59.85
13719;BME280;6931;51.100;17.068;2022-07-26T09:39:16;99746.06;;;23.00;59.17
13719;BME280;6931;51.100;17.068;2022-07-26T09:42:05;99744.16;;;23.12;59.08
13719;BME280;6931;51.100;17.068;2022-07-26T09:44:53;99748.81;;;22.95;58.80
13719;BME280;6931;51.100;17.068;2022-07-26T09:47:20;99750.81;;;22.74;58.64
13719;BME280;6931;51.100;17.068;2022-07-26T09:49:48;99742.38;;;22.80;58.95
13719;BME280;6931;51.100;17.068;2022-07-26T09:52:17;99757.53;;;22.91;58.34
13719;BME280;6931;51.100;17.068;2022-07-26T09:54:46;99765.66;;;22.98;58.80
13719;BME280;6931;51.100;17.068;2022-07-26T09:57:16;99765.53;;;23.07;58.97
13719;BME280;6931;51.100;17.068;2022-07-26T09:59:44;99761.91;;;23.07;57.81
13719;BME280;6931;51.100;17.068;2022-07-26T10:02:11;99770.94;;;23.05;59.09
13719;BME280;6931;51.100;17.068;2022-07-26T10:04:40;99774.16;;;23.13;58.04
13719;BME280;6931;51.100;17.068;2022-07-26T10:07:09;99770.03;;;23.14;57.14
13719;BME280;6931;51.100;17.068;2022-07-26T10:09:51;99779.22;;;23.23;56.61
13719;BME280;6931;51.100;17.068;2022-07-26T10:12:20;99782.44;;;23.31;55.85
13719;BME280;6931;51.100;17.068;2022-07-26T10:14:55;99787.00;;;23.43;58.19
13719;BME280;6931;51.100;17.068;2022-07-26T10:19:58;99783.91;;;23.61;57.74
13719;BME280;6931;51.100;17.068;2022-07-26T10:22:32;99789.28;;;23.59;55.70
13719;BME280;6931;51.100;17.068;2022-07-26T10:27:46;99790.22;;;23.50;54.39
13719;BME280;6931;51.100;17.068;2022-07-26T10:35:38;99782.25;;;23.54;55.18
13719;BME280;6931;51.100;17.068;2022-07-26T10:38:21;99772.59;;;23.66;54.41
13719;BME280;6931;51.100;17.068;2022-07-26T10:40:55;99781.47;;;23.74;53.67
13719;BME280;6931;51.100;17.068;2022-07-26T10:43:22;99782.63;;;23.82;54.66
13719;BME280;6931;51.100;17.068;2022-07-26T10:48:58;99784.38;;;23.79;52.85
13719;BME280;6931;51.100;17.068;2022-07-26T10:51:27;99769.31;;;23.73;54.72
13719;BME280;6931;51.100;17.068;2022-07-26T10:54:02;99777.75;;;23.88;53.92
13719;BME280;6931;51.100;17.068;2022-07-26T10:56:29;99773.94;;;23.91;53.30
13719;BME280;6931;51.100;17.068;2022-07-26T10:58:59;99772.88;;;23.89;53.67
13719;BME280;6931;51.100;17.068;2022-07-26T11:01:33;99767.59;;;23.81;52.09
13719;BME280;6931;51.100;17.068;2022-07-26T11:04:00;99774.09;;;23.82;51.20
13719;BME280;6931;51.100;17.068;2022-07-26T11:06:28;99766.06;;;23.80;51.22
13719;BME280;6931;51.100;17.068;2022-07-26T11:08:57;99774.41;;;23.90;50.97
13719;BME280;6931;51.100;17.068;2022-07-26T11:11:34;99786.09;;;23.71;51.22
13719;BME280;6931;51.100;17.068;2022-07-26T11:14:09;99788.59;;;23.84;50.89
13719;BME280;6931;51.100;17.068;2022-07-26T11:16:42;99782.53;;;23.76;50.42
13719;BME280;6931;51.100;17.068;2022-07-26T11:19:20;99791.88;;;23.77;51.01
13719;BME280;6931;51.100;17.068;2022-07-26T11:21:57;99784.47;;;23.85;51.82
13719;BME280;6931;51.100;17.068;2022-07-26T11:24:25;99783.97;;;23.87;50.38
13719;BME280;6931;51.100;17.068;2022-07-26T11:26:52;99786.88;;;23.92;50.84
13719;BME280;6931;51.100;17.068;2022-07-26T11:29:26;99785.38;;;23.97;52.50
13719;BME280;6931;51.100;17.068;2022-07-26T11:32:05;99788.72;;;23.95;51.44
13719;BME280;6931;51.100;17.068;2022-07-26T11:34:42;99791.16;;;24.02;53.02
13719;BME280;6931;51.100;17.068;2022-07-26T11:37:11;99793.25;;;24.02;52.87
13719;BME280;6931;51.100;17.068;2022-07-26T11:39:37;99792.44;;;24.01;51.26
13719;BME280;6931;51.100;17.068;2022-07-26T11:42:07;99789.50;;;24.16;52.08
13719;BME280;6931;51.100;17.068;2022-07-26T11:44:34;99787.53;;;24.02;51.13
13719;BME280;6931;51.100;17.068;2022-07-26T11:47:12;99791.34;;;23.99;52.72
13719;BME280;6931;51.100;17.068;2022-07-26T11:49:39;99786.66;;;24.16;54.02
13719;BME280;6931;51.100;17.068;2022-07-26T11:52:30;99792.41;;;24.21;53.61
13719;BME280;6931;51.100;17.068;2022-07-26T11:54:57;99742.13;;;23.93;51.40
13719;BME280;6931;51.100;17.068;2022-07-26T11:57:30;99780.69;;;23.94;50.39
13719;BME280;6931;51.100;17.068;2022-07-26T11:59:58;99778.84;;;24.11;49.76
13719;BME280;6931;51.100;17.068;2022-07-26T12:02:27;99779.69;;;24.17;50.24
13719;BME280;6931;51.100;17.068;2022-07-26T12:05:21;99775.66;;;24.29;50.33
13719;BME280;6931;51.100;17.068;2022-07-26T12:10:18;99780.63;;;24.08;50.29
13719;BME280;6931;51.100;17.068;2022-07-26T12:12:45;99777.00;;;24.08;50.28
13719;BME280;6931;51.100;17.068;2022-07-26T12:15:12;99776.94;;;24.02;51.21
13719;BME280;6931;51.100;17.068;2022-07-26T12:17:57;99776.34;;;23.98;51.54
13719;BME280;6931;51.100;17.068;2022-07-26T12:20:24;99767.13;;;24.03;52.12
13719;BME280;6931;51.100;17.068;2022-07-26T12:22:53;99773.72;;;24.15;51.67
13719;BME280;6931;51.100;17.068;2022-07-26T12:25:25;99767.00;;;24.18;52.16
13719;BME280;6931;51.100;17.068;2022-07-26T12:27:52;99772.91;;;24.14;51.74
13719;BME280;6931;51.100;17.068;2022-07-26T12:30:19;99771.31;;;24.08;50.32
13719;BME280;6931;51.100;17.068;2022-07-26T12:32:48;99768.53;;;24.13;51.46
13719;BME280;6931;51.100;17.068;2022-07-26T12:35:27;99768.31;;;24.17;50.99
13719;BME280;6931;51.100;17.068;2022-07-26T12:37:54;99739.66;;;24.00;50.83
13719;BME280;6931;51.100;17.068;2022-07-26T12:40:27;99769.78;;;24.12;49.67
13719;BME280;6931;51.100;17.068;2022-07-26T12:42:57;99758.41;;;24.12;50.73
13719;BME280;6931;51.100;17.068;2022-07-26T12:45:33;99762.75;;;24.08;51.61
13719;BME280;6931;51.100;17.068;2022-07-26T12:48:02;99765.63;;;24.08;51.87
13719;BME280;6931;51.100;17.068;2022-07-26T12:50:29;99770.00;;;24.09;51.43
13719;BME280;6931;51.100;17.068;2022-07-26T12:53:07;99766.72;;;24.16;50.12
13719;BME280;6931;51.100;17.068;2022-07-26T12:55:37;99761.44;;;24.03;53.09
13719;BME280;6931;51.100;17.068;2022-07-26T12:58:04;99756.16;;;23.96;53.29
13719;BME280;6931;51.100;17.068;2022-07-26T13:00:31;99767.13;;;24.03;52.81
13719;BME280;6931;51.100;17.068;2022-07-26T13:02:57;99763.28;;;24.06;49.85
13719;BME280;6931;51.100;17.068;2022-07-26T13:05:24;99750.28;;;24.00;51.58
13719;BME280;6931;51.100;17.068;2022-07-26T13:07:52;99757.66;;;24.12;51.61
13719;BME280;6931;51.100;17.068;2022-07-26T13:10:19;99750.72;;;24.18;51.69
13719;BME280;6931;51.100;17.068;2022-07-26T13:13:02;99751.44;;;24.13;51.31
13719;BME280;6931;51.100;17.068;2022-07-26T13:15:30;99746.91;;;24.27;52.11
13719;BME280;6931;51.100;17.068;2022-07-26T13:18:06;99726.00;;;24.04;53.17
13719;BME280;6931;51.100;17.068;2022-07-26T13:20:35;99760.13;;;24.30;54.15
13719;BME280;6931;51.100;17.068;2022-07-26T13:23:02;99762.69;;;24.22;52.47
13719;BME280;6931;51.100;17.068;2022-07-26T13:25:29;99771.47;;;24.24;52.18
13719;BME280;6931;51.100;17.068;2022-07-26T13:28:05;99766.56;;;23.99;51.67